createdAt,value
2022-08-17T00:02:09.848Z,20.20
2022-08-17T00:04:50.648Z,20.20
2022-08-17T00:07:17.391Z,20.20
2022-08-17T00:09:44.026Z,20.20
2022-08-17T00:12:40.666Z,20.20
2022-08-17T00:14:57.293Z,20.20
2022-08-17T00:17:24.059Z,20.20
2022-08-17T00:19:50.645Z,20.30
2022-08-17T00:22:34.647Z,20.30
2022-08-17T00:25:07.256Z,20.40
2022-08-17T00:27:34.487Z,20.30
2022-08-17T00:30:01.348Z,20.20
2022-08-17T00:33:12.190Z,20.10
2022-08-17T00:35:18.247Z,20.00
2022-08-17T00:37:44.919Z,20.00
2022-08-17T00:40:14.453Z,20.00
2022-08-17T00:42:42.680Z,20.00
2022-08-17T00:45:13.334Z,20.00
2022-08-17T00:47:40.591Z,20.00
2022-08-17T00:50:10.603Z,20.00
2022-08-17T00:52:47.589Z,19.90
2022-08-17T00:55:14.697Z,19.90
2022-08-17T00:57:51.265Z,19.90
2022-08-17T01:00:28.046Z,19.80
2022-08-17T01:03:00.122Z,19.80
2022-08-17T01:05:29.441Z,19.80
2022-08-17T01:07:56.847Z,19.90
2022-08-17T01:10:59.305Z,19.80
2022-08-17T01:13:18.010Z,19.70
2022-08-17T01:15:59.465Z,19.60
2022-08-17T01:18:27.238Z,19.60
2022-08-17T01:20:58.569Z,19.60
2022-08-17T01:23:27.465Z,19.60
2022-08-17T01:25:57.837Z,19.70
2022-08-17T01:28:52.449Z,20.00
2022-08-17T01:31:14.769Z,20.20
2022-08-17T01:33:41.777Z,20.30
2022-08-17T01:36:08.789Z,20.20
2022-08-17T01:38:36.990Z,20.00
2022-08-17T01:41:07.853Z,19.90
2022-08-17T01:43:53.718Z,19.80
2022-08-17T01:46:28.162Z,19.70
2022-08-17T01:48:57.219Z,19.80
2022-08-17T01:51:27.582Z,19.80
2022-08-17T01:53:58.222Z,19.90
2022-08-17T01:56:26.857Z,20.00
2022-08-17T01:58:54.094Z,19.90
2022-08-17T02:01:23.873Z,19.90
2022-08-17T02:03:53.231Z,20.00
2022-08-17T02:06:27.503Z,19.90
2022-08-17T02:09:02.723Z,19.90
2022-08-17T02:11:32.419Z,19.70
2022-08-17T02:14:03.433Z,19.60
2022-08-17T02:16:36.850Z,19.60
2022-08-17T02:19:08.372Z,19.60
2022-08-17T02:21:36.754Z,19.50
2022-08-17T02:24:04.911Z,19.50
2022-08-17T02:26:31.578Z,19.50
2022-08-17T02:28:58.194Z,19.50
2022-08-17T02:31:24.843Z,19.50
2022-08-17T02:34:00.389Z,19.60
2022-08-17T02:36:31.015Z,19.50
2022-08-17T02:38:58.461Z,19.70
2022-08-17T02:41:25.065Z,19.60
2022-08-17T02:43:53.085Z,19.60
2022-08-17T02:46:19.735Z,19.50
2022-08-17T02:48:46.408Z,19.60
2022-08-17T02:51:13.097Z,19.70
2022-08-17T02:53:39.706Z,19.80
2022-08-17T02:56:06.696Z,20.00
2022-08-17T02:58:35.292Z,20.00
2022-08-17T03:01:05.026Z,20.00
2022-08-17T03:03:31.941Z,20.00
2022-08-17T03:05:58.553Z,20.00
2022-08-17T03:08:25.441Z,20.00
2022-08-17T03:10:52.548Z,20.00
2022-08-17T03:13:19.997Z,20.00
2022-08-17T03:15:48.351Z,20.10
2022-08-17T03:18:25.066Z,20.10
2022-08-17T03:20:59.623Z,20.10
2022-08-17T03:23:29.709Z,20.30
2022-08-17T03:25:57.781Z,20.10
2022-08-17T03:28:24.917Z,20.00
2022-08-17T03:30:52.100Z,20.00
2022-08-17T03:33:19.486Z,20.00
2022-08-17T03:35:46.804Z,19.80
2022-08-17T03:38:15.853Z,19.80
2022-08-17T03:40:56.569Z,19.70
2022-08-17T03:43:27.671Z,19.80
2022-08-17T03:46:26.907Z,19.80
2022-08-17T03:49:17.870Z,19.90
2022-08-17T03:52:03.434Z,19.80
2022-08-17T03:54:48.530Z,19.80
2022-08-17T03:57:15.223Z,19.70
2022-08-17T03:59:42.062Z,19.60
2022-08-17T04:02:21.054Z,19.60
2022-08-17T04:04:50.798Z,19.60
2022-08-17T04:07:23.330Z,19.60
2022-08-17T04:09:50.138Z,19.60
2022-08-17T04:12:19.230Z,19.70
2022-08-17T04:14:53.381Z,19.80
2022-08-17T04:17:24.038Z,19.90
2022-08-17T04:19:50.737Z,20.10
2022-08-17T04:22:30.823Z,19.90
2022-08-17T04:25:16.932Z,20.00
2022-08-17T04:27:43.742Z,19.80
2022-08-17T04:30:11.187Z,19.90
2022-08-17T04:33:13.932Z,20.10
2022-08-17T04:35:43.161Z,20.20
2022-08-17T04:38:14.019Z,20.20
2022-08-17T04:40:59.184Z,20.30
2022-08-17T04:43:28.157Z,20.40
2022-08-17T04:46:00.971Z,20.60
2022-08-17T04:48:36.928Z,20.60
2022-08-17T04:51:09.515Z,20.70
2022-08-17T04:53:36.253Z,20.90
2022-08-17T04:56:03.608Z,21.10
2022-08-17T04:58:30.215Z,21.10
2022-08-17T05:00:57.046Z,21.10
2022-08-17T05:03:24.357Z,21.20
2022-08-17T05:05:51.110Z,21.20
2022-08-17T05:08:19.918Z,21.20
2022-08-17T05:10:47.926Z,21.20
2022-08-17T05:13:23.891Z,21.10
2022-08-17T05:15:57.969Z,21.10
2022-08-17T05:18:25.456Z,21.00
2022-08-17T05:20:52.810Z,21.10
2022-08-17T05:23:22.080Z,21.10
2022-08-17T05:25:51.281Z,21.10
2022-08-17T05:28:23.528Z,21.00
2022-08-17T05:30:55.467Z,21.10
2022-08-17T05:33:25.294Z,21.10
2022-08-17T05:35:54.725Z,21.00
2022-08-17T05:38:23.618Z,21.00
2022-08-17T05:40:50.756Z,20.90
2022-08-17T05:43:22.283Z,20.90
2022-08-17T05:46:16.582Z,20.90
2022-08-17T05:48:49.357Z,21.00
2022-08-17T05:51:31.018Z,20.90
2022-08-17T05:54:17.526Z,21.00
2022-08-17T05:56:56.069Z,21.00
2022-08-17T05:59:48.125Z,21.00
2022-08-17T06:02:24.328Z,21.10
2022-08-17T06:04:56.643Z,21.10
2022-08-17T06:07:37.132Z,21.10
2022-08-17T06:10:18.278Z,21.20
2022-08-17T06:13:02.963Z,21.20
2022-08-17T06:15:56.235Z,21.20
2022-08-17T06:18:28.427Z,21.30
2022-08-17T06:21:01.163Z,21.30
2022-08-17T06:23:34.723Z,21.30
2022-08-17T06:26:12.622Z,21.30
2022-08-17T06:28:49.331Z,21.30
2022-08-17T06:31:22.458Z,21.20
2022-08-17T06:33:49.613Z,21.40
2022-08-17T06:36:37.539Z,21.30
2022-08-17T06:39:10.324Z,21.30
2022-08-17T06:42:07.114Z,21.30
2022-08-17T06:44:51.031Z,21.30
2022-08-17T06:47:47.421Z,21.30
2022-08-17T06:50:19.358Z,21.50
2022-08-17T06:53:04.265Z,21.50
2022-08-17T06:55:53.206Z,21.60
2022-08-17T06:58:23.410Z,21.70
2022-08-17T07:00:59.544Z,21.70
2022-08-17T07:03:53.440Z,21.70
2022-08-17T07:06:27.703Z,22.10
2022-08-17T07:09:08.594Z,22.20
2022-08-17T07:11:51.752Z,22.10
2022-08-17T07:14:43.101Z,22.10
2022-08-17T07:17:15.666Z,22.10
2022-08-17T07:19:45.387Z,22.20
2022-08-17T07:22:50.586Z,22.30
2022-08-17T07:25:27.479Z,22.30
2022-08-17T07:27:56.259Z,22.40
2022-08-17T07:30:54.533Z,22.40
2022-08-17T07:33:25.625Z,22.60
2022-08-17T07:35:52.793Z,22.50
2022-08-17T07:38:25.028Z,22.40
2022-08-17T07:41:02.413Z,22.70
2022-08-17T07:43:33.754Z,22.80
2022-08-17T07:46:42.101Z,22.80
2022-08-17T07:49:14.582Z,22.80
2022-08-17T07:51:57.164Z,23.10
2022-08-17T07:54:39.533Z,23.10
2022-08-17T07:57:12.662Z,23.20
2022-08-17T07:59:43.283Z,23.20
2022-08-17T08:02:31.695Z,23.40
2022-08-17T08:05:02.565Z,23.50
2022-08-17T08:07:39.592Z,23.40
2022-08-17T08:10:27.914Z,23.50
2022-08-17T08:13:21.821Z,23.70
2022-08-17T08:15:53.662Z,23.80
2022-08-17T08:18:54.269Z,23.70
2022-08-17T08:21:33.020Z,23.70
2022-08-17T08:24:37.153Z,23.80
2022-08-17T08:27:35.812Z,23.80
2022-08-17T08:30:10.277Z,23.50
2022-08-17T08:32:50.402Z,23.20
2022-08-17T08:35:31.891Z,23.10
2022-08-17T08:38:28.326Z,23.10
2022-08-17T08:41:07.407Z,22.90
2022-08-17T08:43:41.130Z,22.80
2022-08-17T08:46:35.378Z,22.70
2022-08-17T08:50:02.794Z,22.50
2022-08-17T08:53:00.221Z,22.40
2022-08-17T08:55:41.499Z,21.80
2022-08-17T08:58:31.616Z,21.50
2022-08-17T09:01:08.824Z,21.40
2022-08-17T09:04:21.454Z,21.10
2022-08-17T09:07:06.948Z,21.10
2022-08-17T09:10:13.925Z,21.10
2022-08-17T09:12:58.732Z,21.30
2022-08-17T09:15:32.027Z,21.30
2022-08-17T09:19:01.848Z,21.30
2022-08-17T09:20:57.309Z,21.30
2022-08-17T09:23:36.265Z,21.20
2022-08-17T09:26:31.551Z,21.20
2022-08-17T09:29:05.464Z,21.20
2022-08-17T09:31:47.023Z,21.00
2022-08-17T09:34:29.615Z,20.90
2022-08-17T09:37:29.927Z,20.70
2022-08-17T09:40:21.388Z,20.60
2022-08-17T09:42:53.362Z,20.70
2022-08-17T09:45:40.849Z,20.50
2022-08-17T09:48:48.202Z,20.40
2022-08-17T09:51:36.725Z,20.30
2022-08-17T09:54:37.069Z,20.20
2022-08-17T09:57:31.376Z,20.10
2022-08-17T10:00:15.580Z,20.10
2022-08-17T10:02:54.362Z,20.10
2022-08-17T10:05:46.853Z,20.00
2022-08-17T10:08:35.653Z,20.10
2022-08-17T10:11:18.881Z,20.20
2022-08-17T10:14:12.530Z,20.30
2022-08-17T10:16:59.151Z,20.30
2022-08-17T10:19:40.129Z,20.30
2022-08-17T10:22:51.174Z,20.30
2022-08-17T10:25:54.080Z,20.30
2022-08-17T10:28:28.812Z,20.00
2022-08-17T10:31:23.451Z,19.80
2022-08-17T10:33:56.744Z,19.70
2022-08-17T10:36:27.127Z,19.60
2022-08-17T10:39:52.671Z,19.60
2022-08-17T10:42:36.546Z,19.60
2022-08-17T10:45:17.988Z,19.70
2022-08-17T10:48:05.729Z,19.70
2022-08-17T10:50:55.993Z,19.70
2022-08-17T10:53:31.708Z,19.80
2022-08-17T10:56:13.666Z,19.90
2022-08-17T10:58:55.026Z,20.00
2022-08-17T11:01:33.962Z,19.90
2022-08-17T11:04:11.610Z,20.00
2022-08-17T11:06:49.532Z,20.00
2022-08-17T11:10:00.281Z,20.10
2022-08-17T11:12:38.081Z,20.20
2022-08-17T11:15:17.651Z,20.20
2022-08-17T11:18:15.822Z,20.20
2022-08-17T11:21:16.418Z,20.20
2022-08-17T11:24:18.263Z,20.50
2022-08-17T11:27:22.070Z,20.60
2022-08-17T11:29:59.484Z,20.80
2022-08-17T11:32:37.338Z,20.80
2022-08-17T11:35:18.936Z,20.90
2022-08-17T11:38:25.693Z,21.00
2022-08-17T11:41:16.940Z,21.00
2022-08-17T11:44:21.237Z,21.20
2022-08-17T11:47:17.092Z,21.20
2022-08-17T11:50:07.995Z,21.20
2022-08-17T11:52:39.542Z,21.20
2022-08-17T11:55:33.945Z,21.20
2022-08-17T11:58:04.430Z,21.00
2022-08-17T12:00:46.021Z,20.90
2022-08-17T12:03:23.456Z,20.70
2022-08-17T12:05:53.365Z,20.60
2022-08-17T12:08:22.618Z,20.70
2022-08-17T12:10:52.707Z,20.40
2022-08-17T12:13:19.778Z,20.30
2022-08-17T12:15:50.091Z,20.20
2022-08-17T12:18:30.793Z,20.10
2022-08-17T12:21:17.682Z,20.20
2022-08-17T12:23:57.425Z,20.30
2022-08-17T12:26:31.844Z,20.40
2022-08-17T12:29:05.927Z,20.50
2022-08-17T12:31:45.038Z,20.50
2022-08-17T12:34:26.795Z,20.60
2022-08-17T12:37:04.579Z,20.60
2022-08-17T12:39:33.987Z,20.40
2022-08-17T12:42:02.864Z,20.40
2022-08-17T12:44:36.310Z,20.30
2022-08-17T12:47:21.989Z,20.20
2022-08-17T12:49:52.596Z,20.30
2022-08-17T12:52:28.241Z,20.20
2022-08-17T12:54:54.820Z,20.20
2022-08-17T12:57:29.183Z,20.10
2022-08-17T13:00:07.615Z,20.10
2022-08-17T13:02:45.212Z,20.20
2022-08-17T13:05:24.165Z,20.20
2022-08-17T13:07:53.081Z,20.30
2022-08-17T13:10:30.047Z,20.30
2022-08-17T13:13:04.886Z,20.50
2022-08-17T13:15:44.881Z,20.50
2022-08-17T13:18:33.658Z,20.60
2022-08-17T13:21:00.982Z,20.60
2022-08-17T13:23:29.379Z,20.80
2022-08-17T13:26:02.373Z,20.90
2022-08-17T13:28:30.738Z,20.90
2022-08-17T13:31:28.055Z,20.80
2022-08-17T13:34:19.345Z,21.10
2022-08-17T13:36:47.942Z,21.40
2022-08-17T13:39:21.459Z,21.60
2022-08-17T13:41:50.226Z,22.10
2022-08-17T13:44:37.601Z,22.80
2022-08-17T13:47:15.615Z,23.80
2022-08-17T13:49:48.772Z,24.10
2022-08-17T13:52:40.610Z,24.80
2022-08-17T13:55:19.827Z,25.60
2022-08-17T13:58:05.040Z,26.60
2022-08-17T14:00:36.189Z,27.20
2022-08-17T14:03:04.806Z,28.00
2022-08-17T14:05:32.382Z,28.20
2022-08-17T14:08:02.098Z,28.60
2022-08-17T14:10:35.715Z,28.50
2022-08-17T14:13:02.651Z,29.50
2022-08-17T14:15:55.349Z,29.80
2022-08-17T14:18:17.998Z,30.80
2022-08-17T14:21:02.495Z,30.70
2022-08-17T14:23:31.804Z,30.20
2022-08-17T14:25:58.680Z,30.00
2022-08-17T14:28:25.433Z,30.30
2022-08-17T14:30:55.372Z,30.70
2022-08-17T14:33:24.556Z,31.30
2022-08-17T14:35:54.767Z,30.90
2022-08-17T14:38:21.392Z,30.30
2022-08-17T14:40:48.563Z,30.20
2022-08-17T14:43:15.755Z,31.00
2022-08-17T14:45:43.321Z,30.70
2022-08-17T14:48:10.071Z,31.40
2022-08-17T14:50:40.540Z,30.60
2022-08-17T14:53:09.974Z,30.20
2022-08-17T14:55:39.650Z,30.10
2022-08-17T14:58:07.513Z,30.80
2022-08-17T15:00:34.348Z,31.20
2022-08-17T15:03:01.849Z,30.60
2022-08-17T15:05:33.480Z,31.00
2022-08-17T15:08:01.080Z,31.20
2022-08-17T15:10:29.250Z,30.10
2022-08-17T15:12:57.170Z,30.20
2022-08-17T15:15:24.016Z,29.90
2022-08-17T15:17:51.450Z,30.40
2022-08-17T15:20:21.067Z,29.90
2022-08-17T15:22:49.638Z,30.80
2022-08-17T15:25:19.032Z,30.70
2022-08-17T15:27:45.992Z,30.20
2022-08-17T15:30:13.249Z,29.70
2022-08-17T15:32:51.216Z,30.40
2022-08-17T15:35:27.338Z,31.10
2022-08-17T15:38:10.578Z,31.20
2022-08-17T15:40:43.247Z,31.50
2022-08-17T15:43:13.150Z,31.30
2022-08-17T15:45:40.700Z,31.50
2022-08-17T15:48:07.957Z,32.00
2022-08-17T15:50:35.864Z,31.70
2022-08-17T15:53:03.569Z,31.20
2022-08-17T15:55:31.264Z,30.90
2022-08-17T15:57:58.387Z,31.60
2022-08-17T16:00:28.271Z,30.90
2022-08-17T16:03:15.106Z,30.60
2022-08-17T16:05:42.969Z,30.40
2022-08-17T16:08:11.226Z,30.70
2022-08-17T16:10:38.031Z,30.30
2022-08-17T16:13:04.847Z,30.40
2022-08-17T16:15:31.959Z,30.40
2022-08-17T16:17:59.113Z,30.20
2022-08-17T16:20:26.510Z,30.90
2022-08-17T16:22:54.652Z,31.10
2022-08-17T16:25:40.307Z,31.80
2022-08-17T16:28:16.942Z,31.30
2022-08-17T16:30:44.398Z,31.10
2022-08-17T16:33:12.168Z,30.60
2022-08-17T16:35:39.628Z,29.20
2022-08-17T16:38:07.318Z,28.50
2022-08-17T16:40:36.034Z,28.10
2022-08-17T16:43:03.891Z,28.50
2022-08-17T16:45:40.321Z,29.20
2022-08-17T16:48:08.138Z,29.10
2022-08-17T16:50:35.509Z,28.80
2022-08-17T16:53:11.585Z,28.70
2022-08-17T16:55:38.440Z,28.50
2022-08-17T16:58:06.336Z,28.20
2022-08-17T17:00:33.750Z,28.30
2022-08-17T17:03:18.129Z,27.70
2022-08-17T17:06:13.730Z,27.50
2022-08-17T17:08:48.329Z,27.20
2022-08-17T17:11:43.982Z,26.70
2022-08-17T17:14:16.778Z,26.60
2022-08-17T17:16:57.616Z,26.40
2022-08-17T17:19:45.386Z,26.10
2022-08-17T17:22:23.359Z,26.50
2022-08-17T17:25:27.877Z,27.10
2022-08-17T17:28:11.123Z,27.10
2022-08-17T17:30:57.618Z,26.90
2022-08-17T17:33:46.270Z,26.60
2022-08-17T17:36:41.952Z,26.80
2022-08-17T17:39:27.962Z,26.60
2022-08-17T17:41:57.739Z,25.90
2022-08-17T17:44:32.983Z,25.40
2022-08-17T17:47:01.970Z,25.40
2022-08-17T17:49:36.982Z,25.50
2022-08-17T17:52:30.542Z,25.60
2022-08-17T17:55:18.961Z,25.50
2022-08-17T17:58:00.592Z,25.70
2022-08-17T18:00:53.124Z,25.70
2022-08-17T18:03:50.689Z,25.50
2022-08-17T18:06:46.366Z,25.20
2022-08-17T18:09:29.099Z,25.10
2022-08-17T18:12:11.350Z,24.90
2022-08-17T18:14:55.136Z,24.60
2022-08-17T18:17:22.155Z,24.50
2022-08-17T18:19:48.905Z,24.40
2022-08-17T18:22:19.322Z,24.30
2022-08-17T18:24:49.472Z,24.10
2022-08-17T18:27:33.014Z,23.80
2022-08-17T18:30:19.959Z,23.50
2022-08-17T18:32:46.945Z,23.10
2022-08-17T18:35:14.372Z,22.80
2022-08-17T18:38:03.945Z,22.50
2022-08-17T18:40:34.621Z,22.20
2022-08-17T18:43:12.605Z,21.90
2022-08-17T18:45:49.489Z,21.70
2022-08-17T18:48:30.727Z,21.50
2022-08-17T18:51:21.164Z,21.40
2022-08-17T18:54:12.976Z,21.20
2022-08-17T18:56:59.492Z,21.00
2022-08-17T18:59:44.314Z,20.80
2022-08-17T19:02:23.143Z,20.60
2022-08-17T19:05:13.176Z,20.40
2022-08-17T19:07:43.816Z,20.30
2022-08-17T19:10:23.000Z,20.10
2022-08-17T19:13:12.666Z,20.00
2022-08-17T19:16:14.586Z,19.90
2022-08-17T19:18:39.269Z,19.80
2022-08-17T19:21:21.465Z,19.70
2022-08-17T19:24:11.363Z,19.60
2022-08-17T19:26:53.955Z,19.50
2022-08-17T19:29:51.502Z,19.40
2022-08-17T19:32:24.246Z,19.30
2022-08-17T19:34:51.138Z,19.20
2022-08-17T19:37:17.707Z,19.20
2022-08-17T19:40:04.779Z,19.00
2022-08-17T19:42:31.400Z,18.90
2022-08-17T19:45:24.275Z,18.90
2022-08-17T19:48:03.806Z,18.90
2022-08-17T19:50:43.590Z,18.80
2022-08-17T19:53:36.682Z,18.70
2022-08-17T19:56:11.619Z,18.70
2022-08-17T19:58:48.223Z,18.70
2022-08-17T20:01:40.645Z,18.50
2022-08-17T20:04:16.213Z,18.50
2022-08-17T20:06:49.222Z,18.40
2022-08-17T20:09:36.830Z,18.30
2022-08-17T20:12:11.409Z,18.20
2022-08-17T20:14:53.409Z,18.30
2022-08-17T20:17:28.357Z,18.10
2022-08-17T20:20:19.675Z,18.10
2022-08-17T20:23:20.594Z,18.00
2022-08-17T20:25:59.049Z,17.80
2022-08-17T20:28:30.297Z,17.70
2022-08-17T20:30:58.419Z,17.60
2022-08-17T20:33:36.876Z,17.70
2022-08-17T20:36:21.664Z,17.60
2022-08-17T20:38:57.179Z,17.60
2022-08-17T20:41:29.071Z,17.60
2022-08-17T20:43:58.838Z,17.70
2022-08-17T20:46:40.463Z,17.70
2022-08-17T20:49:44.522Z,17.60
2022-08-17T20:52:32.694Z,17.50
2022-08-17T20:54:59.366Z,17.40
2022-08-17T20:57:31.977Z,17.30
2022-08-17T21:00:16.413Z,17.30
2022-08-17T21:02:49.466Z,17.30
2022-08-17T21:05:34.278Z,17.40
2022-08-17T21:08:14.569Z,17.40
2022-08-17T21:10:45.422Z,17.40
2022-08-17T21:13:13.431Z,17.30
2022-08-17T21:15:51.677Z,17.30
2022-08-17T21:18:40.041Z,17.20
2022-08-17T21:21:32.762Z,17.10
2022-08-17T21:24:14.177Z,17.00
2022-08-17T21:27:19.236Z,17.00
2022-08-17T21:30:08.533Z,16.80
2022-08-17T21:32:38.969Z,16.90
2022-08-17T21:35:12.453Z,16.90
2022-08-17T21:37:41.888Z,16.80
2022-08-17T21:40:18.023Z,16.70
2022-08-17T21:43:25.102Z,16.70
2022-08-17T21:46:04.301Z,16.70
2022-08-17T21:48:41.437Z,16.60
2022-08-17T21:51:13.821Z,16.70
2022-08-17T21:53:47.537Z,16.60
2022-08-17T21:56:41.590Z,16.60
2022-08-17T21:59:24.373Z,16.70
2022-08-17T22:02:02.551Z,16.70
2022-08-17T22:04:32.486Z,16.70
2022-08-17T22:07:01.721Z,16.70
2022-08-17T22:09:31.992Z,16.70
2022-08-17T22:11:58.688Z,16.70
2022-08-17T22:14:55.154Z,16.70
2022-08-17T22:17:31.198Z,16.70
2022-08-17T22:20:04.402Z,16.70
2022-08-17T22:23:07.058Z,16.70
2022-08-17T22:25:37.264Z,16.70
2022-08-17T22:28:07.481Z,16.70
2022-08-17T22:30:38.114Z,16.70
2022-08-17T22:33:34.833Z,16.70
2022-08-17T22:36:22.536Z,16.80
2022-08-17T22:38:50.681Z,16.70
2022-08-17T22:41:19.986Z,16.60
2022-08-17T22:43:48.155Z,16.70
2022-08-17T22:46:15.659Z,16.70
2022-08-17T22:48:51.031Z,16.50
2022-08-17T22:51:25.550Z,16.50
2022-08-17T22:54:14.306Z,16.50
2022-08-17T22:57:18.846Z,16.50
2022-08-17T22:59:51.486Z,16.60
2022-08-17T23:02:26.051Z,16.50
2022-08-17T23:04:57.576Z,16.50
2022-08-17T23:07:24.274Z,16.50
2022-08-17T23:09:52.217Z,16.40
2022-08-17T23:12:26.212Z,16.50
2022-08-17T23:14:58.452Z,16.50
2022-08-17T23:17:25.068Z,16.40
2022-08-17T23:19:51.711Z,16.30
2022-08-17T23:22:18.426Z,16.10
2022-08-17T23:24:48.783Z,16.10
2022-08-17T23:27:15.586Z,16.10
2022-08-17T23:29:42.336Z,15.90
2022-08-17T23:32:15.066Z,15.90
2022-08-17T23:34:44.550Z,16.00
2022-08-17T23:37:12.047Z,15.90
2022-08-17T23:39:39.740Z,16.00
2022-08-17T23:42:09.388Z,16.10
2022-08-17T23:44:37.897Z,16.00
2022-08-17T23:47:05.588Z,16.00
2022-08-17T23:49:32.374Z,15.90
2022-08-17T23:52:01.950Z,15.90
2022-08-17T23:54:33.531Z,15.90
2022-08-17T23:57:04.878Z,15.80
2022-08-17T23:59:33.859Z,15.80
